createdAt,value
2019-02-12T00:01:12.131Z,-74
2019-02-12T00:03:39.920Z,-74
2019-02-12T00:06:07.707Z,-74
2019-02-12T00:08:35.532Z,-75
2019-02-12T00:11:03.578Z,-75
2019-02-12T00:13:31.345Z,-75
2019-02-12T00:15:59.298Z,-74
2019-02-12T00:18:27.062Z,-73
2019-02-12T00:20:54.982Z,-75
2019-02-12T00:23:22.752Z,-73
2019-02-12T00:25:50.705Z,-74
2019-02-12T00:28:18.541Z,-73
2019-02-12T00:30:46.304Z,-74
2019-02-12T00:33:14.082Z,-74
2019-02-12T00:35:41.792Z,-77
2019-02-12T00:38:09.590Z,-79
2019-02-12T00:40:37.356Z,-75
2019-02-12T00:43:05.196Z,-76
2019-02-12T00:45:33.135Z,-75
2019-02-12T00:48:00.882Z,-76
2019-02-12T00:50:28.722Z,-74
2019-02-12T00:52:56.505Z,-76
2019-02-12T00:55:24.449Z,-77
2019-02-12T00:57:52.191Z,-74
2019-02-12T01:00:20.131Z,-75
2019-02-12T01:02:47.892Z,-75
2019-02-12T01:05:15.793Z,-76
2019-02-12T01:07:43.537Z,-70
2019-02-12T01:10:11.645Z,-71
2019-02-12T01:12:39.397Z,-70
2019-02-12T01:15:09.977Z,-70
2019-02-12T01:17:37.868Z,-71
2019-02-12T01:20:08.303Z,-72
2019-02-12T01:22:36.231Z,-70
2019-02-12T01:25:04.720Z,-70
2019-02-12T01:27:32.474Z,-69
2019-02-12T01:30:00.285Z,-71
2019-02-12T01:32:28.183Z,-71
2019-02-12T01:34:56.079Z,-70
2019-02-12T01:37:23.991Z,-70
2019-02-12T01:39:51.818Z,-71
2019-02-12T01:42:19.561Z,-71
2019-02-12T01:44:47.349Z,-71
2019-02-12T01:47:15.295Z,-70
2019-02-12T01:49:43.060Z,-73
2019-02-12T01:52:10.824Z,-72
2019-02-12T01:54:38.593Z,-74
2019-02-12T01:57:06.358Z,-71
2019-02-12T01:59:34.139Z,-72
2019-02-12T02:02:02.053Z,-72
2019-02-12T02:04:29.788Z,-72
2019-02-12T02:06:57.564Z,-71
2019-02-12T02:09:25.326Z,-72
2019-02-12T02:11:53.088Z,-73
2019-02-12T02:14:20.890Z,-72
2019-02-12T02:16:48.810Z,-71
2019-02-12T02:19:16.586Z,-73
2019-02-12T02:21:44.426Z,-71
2019-02-12T02:24:12.236Z,-71
2019-02-12T02:26:39.950Z,-71
2019-02-12T02:29:07.681Z,-72
2019-02-12T02:31:35.431Z,-70
2019-02-12T02:34:03.240Z,-70
2019-02-12T02:36:31.167Z,-70
2019-02-12T02:38:59.073Z,-70
2019-02-12T02:41:26.860Z,-71
2019-02-12T02:43:54.579Z,-71
2019-02-12T02:46:22.544Z,-70
2019-02-12T02:48:50.319Z,-71
2019-02-12T02:51:18.106Z,-72
2019-02-12T02:53:46.090Z,-71
2019-02-12T02:56:13.860Z,-69
2019-02-12T02:58:41.615Z,-70
2019-02-12T03:01:09.502Z,-70
2019-02-12T03:03:37.435Z,-72
2019-02-12T03:06:05.336Z,-73
2019-02-12T03:08:33.082Z,-73
2019-02-12T03:11:00.885Z,-71
2019-02-12T03:13:28.834Z,-72
2019-02-12T03:15:56.605Z,-72
2019-02-12T03:18:24.349Z,-72
2019-02-12T03:20:52.149Z,-73
2019-02-12T03:23:20.047Z,-71
2019-02-12T03:25:47.867Z,-72
2019-02-12T03:28:15.797Z,-72
2019-02-12T03:30:43.584Z,-71
2019-02-12T03:33:11.479Z,-71
2019-02-12T03:35:39.236Z,-70
2019-02-12T03:38:07.141Z,-70
2019-02-12T03:40:34.919Z,-71
2019-02-12T03:43:02.730Z,-71
2019-02-12T03:45:30.523Z,-71
2019-02-12T03:47:58.467Z,-72
2019-02-12T03:50:26.219Z,-71
2019-02-12T03:52:54.174Z,-71
2019-02-12T03:55:21.962Z,-73
2019-02-12T03:57:50.512Z,-72
2019-02-12T04:00:18.402Z,-72
2019-02-12T04:03:01.064Z,-71
2019-02-12T04:05:28.891Z,-71
2019-02-12T04:07:56.640Z,-71
2019-02-12T04:10:24.452Z,-71
2019-02-12T04:12:52.276Z,-72
2019-02-12T04:15:20.312Z,-72
2019-02-12T04:17:48.058Z,-70
2019-02-12T04:20:15.840Z,-71
2019-02-12T04:22:43.776Z,-70
2019-02-12T04:25:11.530Z,-72
2019-02-12T04:27:39.304Z,-72
2019-02-12T04:30:07.344Z,-73
2019-02-12T04:32:35.086Z,-73
2019-02-12T04:35:03.104Z,-73
2019-02-12T04:37:31.032Z,-72
2019-02-12T04:39:58.801Z,-72
2019-02-12T04:42:26.574Z,-72
2019-02-12T04:44:54.379Z,-73
2019-02-12T04:47:22.125Z,-74
2019-02-12T04:49:50.069Z,-73
2019-02-12T04:52:17.836Z,-72
2019-02-12T04:54:45.823Z,-73
2019-02-12T04:57:13.581Z,-73
2019-02-12T04:59:41.551Z,-72
2019-02-12T05:02:09.438Z,-72
2019-02-12T05:04:37.173Z,-72
2019-02-12T05:07:04.956Z,-72
2019-02-12T05:09:34.146Z,-73
2019-02-12T05:12:04.644Z,-73
2019-02-12T05:14:32.622Z,-74
2019-02-12T05:17:00.403Z,-72
2019-02-12T05:19:28.299Z,-72
2019-02-12T05:21:56.145Z,-73
2019-02-12T05:24:24.126Z,-73
2019-02-12T05:26:51.873Z,-71
2019-02-12T05:29:19.793Z,-74
2019-02-12T05:31:47.606Z,-72
2019-02-12T05:34:15.646Z,-72
2019-02-12T05:36:43.463Z,-74
2019-02-12T05:39:11.385Z,-71
2019-02-12T05:41:39.169Z,-71
2019-02-12T05:44:06.919Z,-72
2019-02-12T05:46:34.727Z,-72
2019-02-12T05:49:02.634Z,-72
2019-02-12T05:51:30.531Z,-74
2019-02-12T05:53:58.327Z,-71
2019-02-12T05:56:26.107Z,-72
2019-02-12T05:58:53.928Z,-72
2019-02-12T06:01:21.903Z,-70
2019-02-12T06:03:49.839Z,-73
2019-02-12T06:06:17.771Z,-71
2019-02-12T06:08:45.551Z,-72
2019-02-12T06:11:13.362Z,-70
2019-02-12T06:13:41.140Z,-72
2019-02-12T06:16:08.954Z,-71
2019-02-12T06:18:36.725Z,-72
2019-02-12T06:21:04.520Z,-73
2019-02-12T06:23:32.365Z,-70
2019-02-12T06:26:00.155Z,-71
2019-02-12T06:28:27.962Z,-72
2019-02-12T06:30:55.730Z,-73
2019-02-12T06:33:23.625Z,-72
2019-02-12T06:35:51.423Z,-73
2019-02-12T06:38:19.176Z,-70
2019-02-12T06:40:47.144Z,-72
2019-02-12T06:43:14.938Z,-72
2019-02-12T06:45:42.715Z,-72
2019-02-12T06:48:10.484Z,-71
2019-02-12T06:50:38.287Z,-71
2019-02-12T06:53:12.342Z,-74
2019-02-12T06:55:35.855Z,-75
2019-02-12T06:58:03.700Z,-74
2019-02-12T07:00:31.568Z,-74
2019-02-12T07:03:16.650Z,-74
2019-02-12T07:06:27.722Z,-74
2019-02-12T07:09:24.028Z,-83
2019-02-12T07:13:00.015Z,-84
2019-02-12T07:15:42.779Z,-82
2019-02-12T07:19:01.265Z,-83
2019-02-12T07:22:19.517Z,-85
2019-02-12T07:25:44.755Z,-86
2019-02-12T07:29:09.888Z,-81
2019-02-12T07:32:21.341Z,-86
2019-02-12T07:35:35.949Z,-83
2019-02-12T07:38:50.999Z,-84
2019-02-12T07:42:33.597Z,-75
2019-02-12T07:45:47.165Z,-74
2019-02-12T07:49:20.578Z,-73
2019-02-12T07:52:19.351Z,-75
2019-02-12T07:55:54.267Z,-73
2019-02-12T07:58:46.966Z,-74
2019-02-12T08:02:36.910Z,-73
2019-02-12T08:05:48.618Z,-74
2019-02-12T08:09:13.393Z,-75
2019-02-12T08:12:03.529Z,-75
2019-02-12T08:15:44.466Z,-75
2019-02-12T08:19:08.008Z,-75
2019-02-12T08:22:45.745Z,-73
2019-02-12T08:26:16.408Z,-75
2019-02-12T08:29:26.584Z,-74
2019-02-12T08:33:01.402Z,-73
2019-02-12T08:36:17.490Z,-75
2019-02-12T08:39:06.380Z,-73
2019-02-12T08:42:41.328Z,-74
2019-02-12T08:46:18.249Z,-75
2019-02-12T08:49:17.914Z,-74
2019-02-12T08:53:05.078Z,-74
2019-02-12T08:56:34.338Z,-74
2019-02-12T08:59:58.546Z,-74
2019-02-12T09:03:25.940Z,-73
2019-02-12T09:06:21.832Z,-74
2019-02-12T09:09:34.962Z,-76
2019-02-12T09:12:49.804Z,-74
2019-02-12T09:16:23.324Z,-76
2019-02-12T09:19:36.868Z,-75
2019-02-12T09:23:01.185Z,-74
2019-02-12T09:26:08.859Z,-74
2019-02-12T09:29:24.623Z,-76
2019-02-12T09:32:49.911Z,-74
2019-02-12T09:36:19.196Z,-76
2019-02-12T09:39:31.099Z,-75
2019-02-12T09:43:11.707Z,-74
2019-02-12T09:46:08.821Z,-75
2019-02-12T09:48:50.529Z,-75
2019-02-12T09:51:36.610Z,-76
2019-02-12T09:54:40.139Z,-74
2019-02-12T09:57:57.169Z,-75
2019-02-12T10:00:46.567Z,-76
2019-02-12T10:04:26.117Z,-75
2019-02-12T10:07:21.696Z,-77
2019-02-12T10:11:01.199Z,-78
2019-02-12T10:14:15.531Z,-75
2019-02-12T10:17:19.673Z,-75
2019-02-12T10:20:07.563Z,-75
2019-02-12T10:23:19.718Z,-75
2019-02-12T10:26:01.317Z,-75
2019-02-12T10:29:17.107Z,-77
2019-02-12T10:31:44.023Z,-74
2019-02-12T10:34:11.884Z,-76
2019-02-12T10:36:39.812Z,-75
2019-02-12T10:39:14.480Z,-76
2019-02-12T10:41:42.256Z,-76
2019-02-12T10:44:10.167Z,-75
2019-02-12T10:46:37.965Z,-76
2019-02-12T10:49:05.800Z,-74
2019-02-12T10:51:33.592Z,-74
2019-02-12T10:54:01.404Z,-73
2019-02-12T10:56:29.322Z,-76
2019-02-12T10:58:57.072Z,-74
2019-02-12T11:01:24.901Z,-74
2019-02-12T11:03:52.716Z,-74
2019-02-12T11:06:20.591Z,-74
2019-02-12T11:08:48.371Z,-75
2019-02-12T11:11:16.145Z,-75
2019-02-12T11:13:43.932Z,-73
2019-02-12T11:16:13.098Z,-72
2019-02-12T11:18:40.874Z,-73
2019-02-12T11:21:11.958Z,-74
2019-02-12T11:23:38.347Z,-74
2019-02-12T11:26:06.170Z,-73
2019-02-12T11:28:33.903Z,-76
2019-02-12T11:31:01.857Z,-74
2019-02-12T11:33:29.686Z,-75
2019-02-12T11:35:57.479Z,-75
2019-02-12T11:38:25.269Z,-76
2019-02-12T11:40:53.090Z,-75
2019-02-12T11:43:20.952Z,-74
2019-02-12T11:45:48.901Z,-76
2019-02-12T11:48:17.907Z,-73
2019-02-12T11:50:45.841Z,-75
2019-02-12T11:53:13.647Z,-75
2019-02-12T11:55:41.453Z,-75
2019-02-12T11:58:09.217Z,-75
2019-02-12T12:00:43.047Z,-74
2019-02-12T12:03:10.843Z,-75
2019-02-12T12:05:38.703Z,-76
2019-02-12T12:08:06.493Z,-75
2019-02-12T12:10:34.325Z,-74
2019-02-12T12:13:02.167Z,-74
2019-02-12T12:15:29.999Z,-75
2019-02-12T12:17:57.807Z,-76
2019-02-12T12:20:25.626Z,-75
2019-02-12T12:22:53.429Z,-75
2019-02-12T12:25:21.545Z,-75
2019-02-12T12:27:49.347Z,-74
2019-02-12T12:30:18.956Z,-75
2019-02-12T12:32:46.850Z,-74
2019-02-12T12:35:14.753Z,-74
2019-02-12T12:37:42.529Z,-74
2019-02-12T12:40:10.658Z,-76
2019-02-12T12:42:38.444Z,-73
2019-02-12T12:45:07.662Z,-74
2019-02-12T12:47:35.505Z,-74
2019-02-12T12:50:03.998Z,-75
2019-02-12T12:52:31.818Z,-73
2019-02-12T12:55:00.220Z,-75
2019-02-12T12:57:28.141Z,-75
2019-02-12T12:59:55.892Z,-76
2019-02-12T13:02:23.752Z,-75
2019-02-12T13:04:51.590Z,-73
2019-02-12T13:07:19.403Z,-74
2019-02-12T13:09:47.269Z,-74
2019-02-12T13:12:15.134Z,-75
2019-02-12T13:14:42.983Z,-73
2019-02-12T13:17:11.578Z,-76
2019-02-12T13:19:39.378Z,-74
2019-02-12T13:22:07.267Z,-74
2019-02-12T13:24:35.067Z,-75
2019-02-12T13:27:02.902Z,-74
2019-02-12T13:29:30.662Z,-75
2019-02-12T13:31:58.450Z,-75
2019-02-12T13:34:26.287Z,-74
2019-02-12T13:36:54.126Z,-76
2019-02-12T13:39:24.189Z,-74
2019-02-12T13:41:52.098Z,-74
2019-02-12T13:44:20.031Z,-75
2019-02-12T13:46:47.995Z,-74
2019-02-12T13:49:17.929Z,-76
2019-02-12T13:51:45.809Z,-74
2019-02-12T13:54:13.617Z,-75
2019-02-12T13:56:41.467Z,-78
2019-02-12T13:59:09.263Z,-75
2019-02-12T14:01:37.067Z,-75
2019-02-12T14:04:04.971Z,-76
2019-02-12T14:06:33.009Z,-75
2019-02-12T14:09:00.943Z,-76
2019-02-12T14:11:28.741Z,-75
2019-02-12T14:13:56.673Z,-76
2019-02-12T14:16:24.502Z,-76
2019-02-12T14:18:52.310Z,-74
2019-02-12T14:21:20.139Z,-75
2019-02-12T14:23:47.995Z,-78
2019-02-12T14:26:15.831Z,-79
2019-02-12T14:28:43.648Z,-74
2019-02-12T14:31:11.443Z,-74
2019-02-12T14:33:41.564Z,-76
2019-02-12T14:36:09.749Z,-78
2019-02-12T14:38:37.591Z,-75
2019-02-12T14:41:10.170Z,-74
2019-02-12T14:43:38.024Z,-75
2019-02-12T14:46:05.802Z,-75
2019-02-12T14:48:33.672Z,-77
2019-02-12T14:51:01.456Z,-74
2019-02-12T14:53:29.706Z,-78
2019-02-12T14:55:57.494Z,-74
2019-02-12T14:58:26.509Z,-75
2019-02-12T15:00:54.320Z,-75
2019-02-12T15:03:24.328Z,-74
2019-02-12T15:05:52.134Z,-74
2019-02-12T15:08:19.963Z,-73
2019-02-12T15:10:47.783Z,-76
2019-02-12T15:13:15.698Z,-74
2019-02-12T15:15:43.501Z,-76
2019-02-12T15:18:11.281Z,-74
2019-02-12T15:20:39.056Z,-75
2019-02-12T15:23:07.066Z,-73
2019-02-12T15:25:41.767Z,-73
2019-02-12T15:28:04.585Z,-74
2019-02-12T15:30:32.489Z,-75
2019-02-12T15:33:00.273Z,-75
2019-02-12T15:35:28.005Z,-75
2019-02-12T15:37:55.847Z,-76
2019-02-12T15:40:23.701Z,-75
2019-02-12T15:42:51.503Z,-77
2019-02-12T15:45:19.428Z,-76
2019-02-12T15:47:47.234Z,-75
2019-02-12T15:50:15.019Z,-75
2019-02-12T15:52:42.828Z,-75
2019-02-12T15:55:11.424Z,-75
2019-02-12T15:57:40.513Z,-75
2019-02-12T16:00:12.649Z,-76
2019-02-12T16:02:40.459Z,-75
2019-02-12T16:05:10.401Z,-75
2019-02-12T16:07:38.675Z,-78
2019-02-12T16:10:10.329Z,-75
2019-02-12T16:12:38.119Z,-76
2019-02-12T16:15:09.578Z,-76
2019-02-12T16:17:39.313Z,-73
2019-02-12T16:20:07.326Z,-75
2019-02-12T16:22:35.217Z,-75
2019-02-12T16:25:03.396Z,-77
2019-02-12T16:27:31.239Z,-77
2019-02-12T16:30:01.045Z,-76
2019-02-12T16:32:29.092Z,-78
2019-02-12T16:34:57.306Z,-76
2019-02-12T16:37:25.090Z,-75
2019-02-12T16:39:52.970Z,-74
2019-02-12T16:42:20.852Z,-76
2019-02-12T16:44:48.891Z,-75
2019-02-12T16:47:16.738Z,-76
2019-02-12T16:49:44.572Z,-76
2019-02-12T16:52:20.462Z,-75
2019-02-12T16:54:42.181Z,-76
2019-02-12T16:57:10.038Z,-75
2019-02-12T16:59:37.872Z,-75
2019-02-12T17:02:06.522Z,-75
2019-02-12T17:04:34.494Z,-76
2019-02-12T17:07:02.541Z,-77
2019-02-12T17:09:30.527Z,-74
2019-02-12T17:11:58.543Z,-77
2019-02-12T17:14:26.650Z,-76
2019-02-12T17:16:55.007Z,-77
2019-02-12T17:19:22.940Z,-72
2019-02-12T17:21:50.922Z,-73
2019-02-12T17:24:18.903Z,-73
2019-02-12T17:26:47.466Z,-72
2019-02-12T17:29:15.351Z,-76
2019-02-12T17:31:43.419Z,-75
2019-02-12T17:34:11.478Z,-75
2019-02-12T17:36:39.337Z,-76
2019-02-12T17:39:07.125Z,-76
2019-02-12T17:41:34.989Z,-77
2019-02-12T17:44:03.070Z,-77
2019-02-12T17:46:30.975Z,-76
2019-02-12T17:48:59.044Z,-74
2019-02-12T17:51:26.913Z,-75
2019-02-12T17:53:55.764Z,-74
2019-02-12T17:56:25.160Z,-75
2019-02-12T17:58:53.075Z,-77
2019-02-12T18:01:20.870Z,-79
2019-02-12T18:03:48.883Z,-77
2019-02-12T18:06:16.769Z,-78
2019-02-12T18:08:47.770Z,-78
2019-02-12T18:11:15.606Z,-76
2019-02-12T18:13:43.410Z,-73
2019-02-12T18:16:11.191Z,-75
2019-02-12T18:18:39.006Z,-74
2019-02-12T18:21:06.956Z,-74
2019-02-12T18:23:34.730Z,-75
2019-02-12T18:26:02.914Z,-74
2019-02-12T18:28:30.817Z,-78
2019-02-12T18:30:58.686Z,-76
2019-02-12T18:33:26.471Z,-75
2019-02-12T18:35:54.282Z,-78
2019-02-12T18:38:22.074Z,-78
2019-02-12T18:40:49.935Z,-75
2019-02-12T18:43:17.738Z,-76
2019-02-12T18:45:45.620Z,-75
2019-02-12T18:48:13.409Z,-76
2019-02-12T18:50:41.266Z,-76
2019-02-12T18:53:09.344Z,-77
2019-02-12T18:55:37.738Z,-77
2019-02-12T18:58:05.598Z,-77
2019-02-12T19:00:35.892Z,-75
2019-02-12T19:03:03.672Z,-79
2019-02-12T19:05:31.474Z,-77
2019-02-12T19:07:59.325Z,-77
2019-02-12T19:10:27.142Z,-76
2019-02-12T19:12:54.953Z,-78
2019-02-12T19:15:22.784Z,-76
2019-02-12T19:17:56.185Z,-78
2019-02-12T19:20:24.041Z,-76
2019-02-12T19:22:51.902Z,-76
2019-02-12T19:25:19.904Z,-78
2019-02-12T19:27:47.683Z,-76
2019-02-12T19:30:16.268Z,-76
2019-02-12T19:32:44.209Z,-75
2019-02-12T19:35:12.006Z,-75
2019-02-12T19:37:39.871Z,-75
2019-02-12T19:40:07.970Z,-74
2019-02-12T19:42:35.843Z,-76
2019-02-12T19:45:03.963Z,-76
2019-02-12T19:47:31.872Z,-75
2019-02-12T19:49:59.746Z,-73
2019-02-12T19:52:27.543Z,-73
2019-02-12T19:54:55.351Z,-74
2019-02-12T19:57:23.198Z,-74
2019-02-12T19:59:51.023Z,-74
2019-02-12T20:02:18.899Z,-73
2019-02-12T20:04:46.892Z,-75
2019-02-12T20:07:14.867Z,-73
2019-02-12T20:09:42.709Z,-74
2019-02-12T20:12:10.643Z,-73
2019-02-12T20:14:38.509Z,-75
2019-02-12T20:17:06.371Z,-74
2019-02-12T20:19:34.173Z,-72
2019-02-12T20:22:03.388Z,-73
2019-02-12T20:24:31.230Z,-75
2019-02-12T20:27:06.349Z,-73
2019-02-12T20:29:28.838Z,-74
2019-02-12T20:31:56.721Z,-73
2019-02-12T20:34:24.613Z,-75
2019-02-12T20:36:52.417Z,-75
2019-02-12T20:39:20.253Z,-73
2019-02-12T20:41:48.163Z,-75
2019-02-12T20:44:16.895Z,-73
2019-02-12T20:46:44.734Z,-76
2019-02-12T20:49:12.558Z,-73
2019-02-12T20:51:40.390Z,-72
2019-02-12T20:54:08.227Z,-74
2019-02-12T20:56:36.050Z,-71
2019-02-12T20:59:04.226Z,-73
2019-02-12T21:01:32.076Z,-73
2019-02-12T21:03:59.858Z,-72
2019-02-12T21:06:27.670Z,-72
2019-02-12T21:08:55.489Z,-72
2019-02-12T21:11:23.318Z,-74
2019-02-12T21:13:51.139Z,-76
2019-02-12T21:16:18.953Z,-73
2019-02-12T21:18:46.836Z,-73
2019-02-12T21:21:14.702Z,-73
2019-02-12T21:23:42.503Z,-73
2019-02-12T21:26:10.335Z,-73
2019-02-12T21:28:38.157Z,-72
2019-02-12T21:31:05.961Z,-72
2019-02-12T21:33:34.148Z,-73
2019-02-12T21:36:02.083Z,-75
2019-02-12T21:38:29.987Z,-72
2019-02-12T21:40:57.808Z,-75
2019-02-12T21:43:25.646Z,-73
2019-02-12T21:45:53.595Z,-73
2019-02-12T21:48:21.365Z,-73
2019-02-12T21:50:49.117Z,-72
2019-02-12T21:53:16.909Z,-72
2019-02-12T21:55:44.687Z,-74
2019-02-12T21:58:12.493Z,-76
2019-02-12T22:00:40.237Z,-73
2019-02-12T22:03:08.063Z,-75
2019-02-12T22:05:35.821Z,-73
2019-02-12T22:08:03.592Z,-75
2019-02-12T22:10:31.411Z,-75
2019-02-12T22:12:59.177Z,-76
2019-02-12T22:15:26.971Z,-77
2019-02-12T22:17:54.807Z,-74
2019-02-12T22:20:22.781Z,-76
2019-02-12T22:22:50.633Z,-78
2019-02-12T22:25:18.380Z,-78
2019-02-12T22:27:46.527Z,-79
2019-02-12T22:30:16.805Z,-78
2019-02-12T22:32:44.595Z,-77
2019-02-12T22:35:12.468Z,-80
2019-02-12T22:37:40.321Z,-78
2019-02-12T22:40:08.649Z,-77
2019-02-12T22:42:36.452Z,-78
2019-02-12T22:45:05.914Z,-78
2019-02-12T22:47:33.782Z,-77
2019-02-12T22:50:01.613Z,-78
2019-02-12T22:52:29.413Z,-78
2019-02-12T22:54:57.183Z,-77
2019-02-12T22:57:25.002Z,-77
2019-02-12T22:59:52.766Z,-80
2019-02-12T23:02:20.600Z,-76
2019-02-12T23:04:48.316Z,-76
2019-02-12T23:07:16.123Z,-77
2019-02-12T23:09:44.080Z,-75
2019-02-12T23:12:11.956Z,-78
2019-02-12T23:14:39.859Z,-79
2019-02-12T23:17:07.652Z,-75
2019-02-12T23:19:35.560Z,-75
2019-02-12T23:22:03.390Z,-75
2019-02-12T23:24:31.169Z,-74
2019-02-12T23:26:59.029Z,-79
2019-02-12T23:29:26.814Z,-78
2019-02-12T23:31:54.625Z,-78
2019-02-12T23:34:22.384Z,-77
2019-02-12T23:36:50.181Z,-78
2019-02-12T23:39:18.134Z,-77
2019-02-12T23:41:45.972Z,-77
2019-02-12T23:44:13.955Z,-78
2019-02-12T23:46:41.850Z,-77
2019-02-12T23:49:09.819Z,-77
2019-02-12T23:51:37.833Z,-76
2019-02-12T23:54:05.698Z,-77
2019-02-12T23:56:33.485Z,-77
2019-02-12T23:59:01.331Z,-78
